Time;durP1;ratioP1;P1;durP2;ratioP2;P2;SDS_P1;SDS_P2;PMS_P1;PMS_P2;Temp;Humidity;BMP_temperature;BMP_pressure;BME280_temperature;BME280_humidity;BME280_pressure;Samples;Min_cycle;Max_cycle;Signal;HPM_P1;HPM_P2
2022/03/20 00:01:10;;;;;;;21.58;12.05;;;3.90;85.90;;;;;;4968111;28;20033;-89
2022/03/20 00:03:36;;;;;;;19.48;11.52;;;3.90;85.90;;;;;;4955723;28;20030;-88
2022/03/20 00:06:03;;;;;;;20.25;12.00;;;4.00;86.10;;;;;;4954537;28;20026;-89
2022/03/20 00:08:30;;;;;;;24.02;11.85;;;4.00;86.00;;;;;;4955418;28;20054;-88
2022/03/20 00:10:59;;;;;;;22.60;12.13;;;4.00;85.90;;;;;;4952613;28;20050;-89
2022/03/20 00:13:26;;;;;;;19.75;11.43;;;4.00;86.00;;;;;;4945997;28;20031;-90
2022/03/20 00:15:53;;;;;;;20.58;11.40;;;4.00;85.90;;;;;;4954984;28;20027;-89
2022/03/20 00:18:21;;;;;;;20.83;11.60;;;4.10;86.10;;;;;;4969971;28;20097;-89
2022/03/20 00:20:49;;;;;;;23.27;12.10;;;4.10;85.90;;;;;;4971370;28;20046;-89
2022/03/20 00:23:16;;;;;;;17.55;11.05;;;4.10;85.80;;;;;;4957219;28;20045;-90
2022/03/20 00:25:44;;;;;;;20.70;11.70;;;4.10;86.20;;;;;;4958628;28;20046;-90
2022/03/20 00:28:16;;;;;;;19.00;11.23;;;4.10;85.50;;;;;;4965956;28;20031;-89
2022/03/20 00:30:43;;;;;;;23.02;12.07;;;4.10;85.70;;;;;;4958432;28;20062;-88
2022/03/20 00:33:09;;;;;;;22.08;12.02;;;4.20;85.70;;;;;;4953667;28;20533;-89
2022/03/20 00:35:35;;;;;;;19.40;11.63;;;4.20;85.40;;;;;;4955147;28;20490;-89
2022/03/20 00:38:01;;;;;;;18.75;10.95;;;4.20;85.20;;;;;;4957464;28;20034;-89
2022/03/20 00:40:27;;;;;;;20.10;11.63;;;4.10;84.80;;;;;;4961997;28;20023;-89
2022/03/20 00:42:53;;;;;;;21.13;11.70;;;4.10;84.60;;;;;;4955662;28;20030;-89
2022/03/20 00:45:19;;;;;;;20.10;11.15;;;4.10;84.80;;;;;;4956769;28;20517;-89
2022/03/20 00:47:44;;;;;;;19.65;11.57;;;4.10;85.10;;;;;;4975662;28;20034;-89
2022/03/20 00:50:10;;;;;;;19.55;11.00;;;4.10;85.10;;;;;;4957145;28;20035;-89
2022/03/20 00:52:36;;;;;;;21.42;12.30;;;4.20;85.10;;;;;;4975490;28;20118;-90
2022/03/20 00:55:03;;;;;;;18.77;11.10;;;4.20;85.10;;;;;;4959460;28;20015;-89
2022/03/20 00:57:28;;;;;;;22.85;12.20;;;4.20;85.00;;;;;;4956151;28;20033;-89
2022/03/20 00:59:54;;;;;;;21.73;11.93;;;4.30;84.80;;;;;;4958761;28;20067;-89
2022/03/20 01:02:20;;;;;;;19.55;11.60;;;4.30;84.90;;;;;;4958722;28;20038;-90
2022/03/20 01:04:46;;;;;;;18.17;11.93;;;4.20;84.80;;;;;;4956544;28;20378;-89
2022/03/20 01:07:15;;;;;;;19.58;12.10;;;4.20;84.60;;;;;;4993795;28;20105;-88
2022/03/20 01:09:40;;;;;;;22.13;11.73;;;4.20;84.70;;;;;;4991399;28;20030;-89
2022/03/20 01:12:08;;;;;;;20.90;11.43;;;4.20;84.70;;;;;;4975817;28;20038;-88
2022/03/20 01:14:35;;;;;;;21.35;11.85;;;4.20;84.80;;;;;;4965767;28;20058;-89
2022/03/20 01:17:01;;;;;;;19.42;11.13;;;4.30;84.80;;;;;;4955291;28;20026;-90
2022/03/20 01:19:27;;;;;;;20.95;11.32;;;4.20;84.70;;;;;;4975646;28;20101;-89
2022/03/20 01:21:54;;;;;;;19.50;11.63;;;4.30;84.70;;;;;;4958909;28;20046;-89
2022/03/20 01:24:21;;;;;;;19.73;11.30;;;4.20;84.60;;;;;;4947237;28;20030;-89
2022/03/20 01:26:46;;;;;;;17.40;10.20;;;4.20;84.70;;;;;;4976437;28;20466;-89
2022/03/20 01:29:12;;;;;;;18.15;11.48;;;4.30;84.70;;;;;;4969503;28;20027;-89
2022/03/20 01:31:38;;;;;;;19.85;11.63;;;4.30;84.60;;;;;;4958033;28;20558;-89
2022/03/20 01:34:05;;;;;;;18.27;12.07;;;4.30;84.40;;;;;;4971335;28;20185;-89
2022/03/20 01:36:30;;;;;;;21.05;12.05;;;4.30;84.60;;;;;;4976164;28;20019;-88
2022/03/20 01:38:56;;;;;;;20.95;11.85;;;4.30;84.70;;;;;;4979985;28;20041;-88
2022/03/20 01:41:23;;;;;;;20.65;11.45;;;4.30;84.50;;;;;;4979071;28;20039;-88
2022/03/20 01:43:54;;;;;;;21.48;11.38;;;4.30;84.40;;;;;;4964143;28;20495;-89
2022/03/20 01:46:20;;;;;;;23.08;12.45;;;4.30;84.40;;;;;;4955375;28;20026;-89
2022/03/20 01:48:46;;;;;;;20.52;11.75;;;4.30;84.40;;;;;;4954567;28;20042;-89
2022/03/20 01:51:14;;;;;;;21.23;11.85;;;4.30;84.50;;;;;;4957107;28;20030;-89
2022/03/20 01:53:40;;;;;;;22.33;11.65;;;4.30;84.50;;;;;;4973825;28;20038;-89
2022/03/20 01:56:06;;;;;;;21.92;12.27;;;4.40;84.30;;;;;;4957690;28;20030;-89
2022/03/20 01:58:33;;;;;;;22.20;12.63;;;4.40;84.30;;;;;;4950438;28;20348;-88
2022/03/20 02:00:59;;;;;;;21.30;12.35;;;4.40;84.30;;;;;;4952229;28;20035;-88
2022/03/20 02:03:25;;;;;;;23.42;12.68;;;4.40;84.30;;;;;;4971223;28;20419;-89
2022/03/20 02:05:51;;;;;;;20.63;11.65;;;4.30;84.20;;;;;;4972353;28;20023;-90
2022/03/20 02:08:25;;;;;;;19.90;12.07;;;4.30;84.20;;;;;;4956071;28;20035;-89
2022/03/20 02:10:51;;;;;;;23.20;12.88;;;4.30;84.40;;;;;;4956069;28;20023;-89
2022/03/20 02:13:23;;;;;;;20.73;11.77;;;4.30;84.40;;;;;;4956819;28;20121;-89
2022/03/20 02:15:51;;;;;;;23.80;13.15;;;4.30;84.20;;;;;;4955280;28;20034;-89
2022/03/20 02:18:18;;;;;;;20.30;12.52;;;4.30;84.50;;;;;;4972474;28;20022;-89
2022/03/20 02:20:47;;;;;;;22.60;12.68;;;4.30;84.30;;;;;;4968114;28;20019;-89
2022/03/20 02:23:13;;;;;;;21.02;12.68;;;4.30;84.40;;;;;;4975028;28;20027;-88
2022/03/20 02:25:47;;;;;;;25.00;12.80;;;4.30;84.10;;;;;;4958819;28;20031;-88
2022/03/20 02:28:14;;;;;;;20.58;11.65;;;4.30;83.80;;;;;;4973776;28;20026;-89
2022/03/20 02:30:39;;;;;;;21.48;12.07;;;4.30;83.90;;;;;;4968486;23;20022;-86
2022/03/20 02:33:05;;;;;;;23.23;12.73;;;4.20;83.80;;;;;;4976111;28;20047;-87
2022/03/20 02:35:31;;;;;;;22.75;12.43;;;4.30;83.80;;;;;;4984736;28;20015;-86
2022/03/20 02:37:57;;;;;;;21.83;12.30;;;4.30;83.90;;;;;;4966259;28;20367;-88
2022/03/20 02:40:23;;;;;;;24.52;13.00;;;4.40;84.00;;;;;;4983972;28;20026;-88
2022/03/20 02:42:51;;;;;;;25.17;13.15;;;4.40;84.00;;;;;;4946454;29;20032;-86
2022/03/20 02:45:22;;;;;;;21.75;12.98;;;4.40;83.90;;;;;;4956807;28;20082;-85
2022/03/20 02:47:49;;;;;;;22.05;12.98;;;4.40;83.80;;;;;;4956925;28;20117;-87
2022/03/20 02:50:19;;;;;;;21.83;12.65;;;4.40;83.70;;;;;;4940768;28;20420;-86
2022/03/20 02:52:49;;;;;;;23.88;12.93;;;4.40;84.00;;;;;;4947366;28;20034;-85
2022/03/20 02:55:27;;;;;;;22.83;12.85;;;4.40;83.70;;;;;;4957015;28;20367;-85
2022/03/20 02:57:55;;;;;;;22.20;12.65;;;4.40;83.40;;;;;;4944395;28;20027;-85
2022/03/20 03:00:26;;;;;;;21.88;12.38;;;4.30;83.20;;;;;;4932111;29;20078;-86
2022/03/20 03:02:54;;;;;;;21.00;12.60;;;4.20;83.10;;;;;;4952624;29;20065;-86
2022/03/20 03:05:22;;;;;;;25.50;13.93;;;4.20;83.20;;;;;;4943315;29;20122;-86
2022/03/20 03:13:19;;;;;;;24.70;13.45;;;4.10;83.10;;;;;;4971450;28;20038;-85
2022/03/20 03:15:45;;;;;;;25.65;13.57;;;4.10;83.20;;;;;;4980067;28;20015;-87
2022/03/20 03:18:11;;;;;;;27.23;15.18;;;4.10;83.40;;;;;;4963893;28;20027;-85
2022/03/20 03:20:37;;;;;;;28.17;15.00;;;4.00;83.50;;;;;;4954532;28;20035;-86
2022/03/20 03:23:03;;;;;;;24.80;14.00;;;4.10;83.90;;;;;;4956943;28;20027;-85
2022/03/20 03:25:32;;;;;;;32.22;14.88;;;4.20;84.00;;;;;;4947867;29;20110;-86
2022/03/20 03:27:57;;;;;;;23.90;14.63;;;4.20;83.90;;;;;;4937467;29;20143;-85
2022/03/20 03:30:23;;;;;;;26.13;14.57;;;4.20;83.90;;;;;;4955849;28;20054;-85
2022/03/20 03:32:48;;;;;;;28.30;15.45;;;4.30;83.90;;;;;;4959043;28;20043;-87
2022/03/20 03:38:00;;;;;;;29.10;15.45;;;4.20;83.60;;;;;;4956526;29;20034;-86
2022/03/20 03:40:26;;;;;;;27.77;16.40;;;4.20;83.70;;;;;;4948385;29;20031;-85
2022/03/20 03:42:52;;;;;;;29.33;17.00;;;4.20;84.30;;;;;;4951968;29;20027;-86
2022/03/20 03:45:17;;;;;;;33.75;17.42;;;4.30;84.60;;;;;;4956550;29;20509;-86
2022/03/20 03:47:43;;;;;;;32.20;17.05;;;4.30;84.50;;;;;;4940731;29;20058;-85
2022/03/20 03:50:10;;;;;;;35.25;16.50;;;4.40;84.40;;;;;;4957238;29;20031;-84
2022/03/20 03:52:36;;;;;;;27.88;15.68;;;4.40;84.20;;;;;;4943008;28;20034;-84
2022/03/20 03:55:06;;;;;;;27.48;16.02;;;4.40;84.20;;;;;;4950220;29;20047;-85
2022/03/20 03:57:31;;;;;;;29.98;16.13;;;4.40;84.20;;;;;;4953916;29;20019;-86
2022/03/20 03:59:58;;;;;;;28.38;15.85;;;4.40;84.20;;;;;;4946955;29;20714;-85
2022/03/20 04:02:23;;;;;;;26.83;15.07;;;4.50;84.30;;;;;;4948649;29;20027;-85
2022/03/20 04:04:49;;;;;;;28.02;14.90;;;4.60;84.30;;;;;;4950617;29;20099;-85
2022/03/20 04:07:18;;;;;;;27.98;15.20;;;4.60;84.20;;;;;;4942939;29;20114;-85
2022/03/20 04:09:45;;;;;;;28.75;15.90;;;4.60;84.10;;;;;;4939531;29;20110;-85
2022/03/20 04:12:13;;;;;;;31.48;17.20;;;4.70;84.10;;;;;;4950937;28;20031;-86
2022/03/20 04:14:40;;;;;;;26.60;15.73;;;4.80;84.00;;;;;;4939694;29;20039;-86
2022/03/20 04:17:06;;;;;;;27.50;15.60;;;4.80;84.00;;;;;;4945520;29;20015;-85
2022/03/20 04:19:32;;;;;;;28.33;15.32;;;4.90;83.90;;;;;;4943227;28;20130;-85
2022/03/20 04:21:59;;;;;;;29.55;15.25;;;4.90;83.80;;;;;;4946435;29;20085;-85
2022/03/20 04:24:25;;;;;;;27.40;16.33;;;4.90;83.70;;;;;;4946619;29;20027;-84
2022/03/20 04:26:52;;;;;;;26.02;15.15;;;5.00;83.60;;;;;;4952983;29;20378;-87
2022/03/20 04:29:20;;;;;;;30.27;16.13;;;5.10;83.60;;;;;;4956506;28;20486;-86
2022/03/20 04:31:47;;;;;;;28.60;15.75;;;5.10;83.40;;;;;;4955307;28;20027;-84
2022/03/20 04:34:12;;;;;;;26.95;15.95;;;5.10;83.40;;;;;;4949071;28;20036;-85
2022/03/20 04:36:39;;;;;;;32.20;16.92;;;5.20;83.30;;;;;;4950051;29;20110;-86
2022/03/20 04:39:04;;;;;;;27.92;14.88;;;5.20;83.20;;;;;;4956838;29;20027;-85
2022/03/20 04:41:31;;;;;;;28.42;15.32;;;5.20;83.10;;;;;;4953099;29;20158;-85
2022/03/20 04:43:57;;;;;;;30.17;16.88;;;5.20;83.10;;;;;;4958106;28;20585;-86
2022/03/20 04:46:23;;;;;;;29.13;16.05;;;5.20;83.10;;;;;;4951998;28;20038;-85
2022/03/20 04:59:46;;;;;;;29.30;16.35;;;5.30;82.90;;;;;;4947123;28;20158;-85
2022/03/20 05:02:11;;;;;;;30.58;17.10;;;5.30;82.90;;;;;;4954841;29;20066;-86
2022/03/20 05:04:37;;;;;;;28.15;14.85;;;5.30;82.80;;;;;;4950897;29;20030;-86
2022/03/20 05:07:06;;;;;;;30.63;15.95;;;5.30;82.70;;;;;;4952692;28;20975;-85
2022/03/20 05:15:08;;;;;;;29.77;15.55;;;5.40;82.60;;;;;;4956789;28;20066;-86
2022/03/20 05:17:34;;;;;;;33.45;17.17;;;5.40;82.60;;;;;;4943516;29;20078;-85
2022/03/20 05:20:00;;;;;;;31.15;17.42;;;5.30;82.60;;;;;;4947523;29;20027;-86
2022/03/20 05:22:26;;;;;;;28.38;16.50;;;5.30;82.80;;;;;;4946307;29;20030;-87
2022/03/20 05:24:52;;;;;;;28.58;16.88;;;5.30;82.90;;;;;;4940225;29;20024;-85
2022/03/20 05:27:18;;;;;;;31.48;17.02;;;5.20;82.90;;;;;;4961355;28;20130;-85
2022/03/20 05:29:44;;;;;;;31.15;17.58;;;5.20;83.00;;;;;;4958615;29;20019;-85
2022/03/20 05:32:09;;;;;;;33.08;17.52;;;5.20;83.00;;;;;;4948806;28;20039;-84
2022/03/20 05:34:36;;;;;;;29.90;16.73;;;5.20;82.90;;;;;;4946566;29;20111;-86
2022/03/20 05:37:03;;;;;;;31.90;16.88;;;5.20;82.90;;;;;;4959640;28;20020;-85
2022/03/20 05:39:29;;;;;;;31.98;17.30;;;5.10;82.80;;;;;;4948702;29;20042;-84
2022/03/20 05:41:54;;;;;;;27.17;16.02;;;5.10;82.90;;;;;;4940396;29;20024;-85
2022/03/20 05:44:24;;;;;;;24.75;13.55;;;5.10;82.90;;;;;;4950656;29;20038;-86
2022/03/20 05:46:52;;;;;;;25.70;15.43;;;5.10;82.90;;;;;;4943354;29;20177;-85
2022/03/20 05:49:19;;;;;;;32.15;15.73;;;5.10;82.80;;;;;;4931313;29;20814;-86
2022/03/20 05:51:46;;;;;;;30.17;16.65;;;5.10;82.80;;;;;;4942162;29;20031;-84
2022/03/20 05:54:12;;;;;;;28.15;15.95;;;5.10;82.90;;;;;;4946271;29;20117;-85
2022/03/20 05:59:22;;;;;;;28.60;16.08;;;5.20;82.80;;;;;;4958173;29;20042;-86
2022/03/20 06:01:50;;;;;;;28.85;16.65;;;5.30;82.90;;;;;;4956037;29;20019;-86
2022/03/20 06:04:16;;;;;;;38.80;18.10;;;5.20;82.70;;;;;;4940604;29;20034;-84
2022/03/20 06:06:43;;;;;;;32.25;17.25;;;5.30;82.60;;;;;;4956063;28;20023;-86
2022/03/20 06:09:09;;;;;;;29.55;16.35;;;5.40;82.60;;;;;;4940609;29;20501;-87
2022/03/20 06:11:34;;;;;;;29.63;17.45;;;5.40;82.30;;;;;;4950733;29;20024;-87
2022/03/20 06:14:01;;;;;;;29.75;16.08;;;5.50;82.20;;;;;;4952288;29;20087;-87
2022/03/20 06:16:28;;;;;;;28.42;16.23;;;5.50;82.20;;;;;;4937744;29;20071;-87
2022/03/20 06:18:57;;;;;;;29.50;16.30;;;5.50;82.30;;;;;;4953954;28;20088;-87
2022/03/20 06:21:25;;;;;;;29.92;17.05;;;5.50;82.30;;;;;;4952909;28;20023;-86
2022/03/20 06:23:53;;;;;;;28.65;15.40;;;5.50;82.30;;;;;;4957998;29;20023;-87
2022/03/20 06:26:19;;;;;;;29.35;17.33;;;5.50;82.20;;;;;;4941669;29;20402;-85
2022/03/20 06:28:44;;;;;;;28.23;16.38;;;5.50;82.20;;;;;;4950480;29;20023;-88
2022/03/20 06:31:12;;;;;;;30.67;17.30;;;5.50;82.20;;;;;;4950024;28;20038;-85
2022/03/20 06:33:37;;;;;;;29.15;17.38;;;5.50;82.20;;;;;;4951240;29;20421;-87
2022/03/20 06:36:04;;;;;;;31.23;16.13;;;5.60;82.20;;;;;;4957935;29;20027;-85
2022/03/20 06:38:31;;;;;;;29.52;16.10;;;5.60;82.10;;;;;;4939245;29;20027;-85
2022/03/20 06:40:57;;;;;;;28.50;16.80;;;5.80;81.80;;;;;;4946462;29;20174;-86
2022/03/20 06:43:24;;;;;;;31.00;17.00;;;5.90;82.10;;;;;;4947818;29;20028;-85
2022/03/20 06:45:50;;;;;;;29.63;16.58;;;6.00;81.50;;;;;;4954075;28;20111;-86
2022/03/20 06:48:16;;;;;;;32.30;16.42;;;6.20;81.30;;;;;;4959354;28;20026;-85
2022/03/20 06:50:41;;;;;;;28.27;16.02;;;6.30;81.10;;;;;;4953669;28;20027;-86
2022/03/20 06:53:07;;;;;;;26.85;16.17;;;6.40;80.80;;;;;;4940062;29;20125;-86
2022/03/20 06:55:33;;;;;;;29.38;16.13;;;6.50;80.60;;;;;;4931689;29;20067;-86
2022/03/20 06:57:59;;;;;;;26.35;16.30;;;6.70;80.10;;;;;;4949144;29;20060;-87
2022/03/20 07:00:26;;;;;;;27.42;15.75;;;6.90;79.70;;;;;;4950679;29;20397;-85
2022/03/20 07:02:53;;;;;;;27.45;15.63;;;7.10;79.40;;;;;;4961879;28;20027;-86
2022/03/20 07:05:19;;;;;;;27.83;16.08;;;7.30;78.80;;;;;;4960644;28;20030;-86
2022/03/20 07:07:45;;;;;;;29.35;16.00;;;7.50;78.50;;;;;;4953685;29;20051;-86
2022/03/20 07:10:13;;;;;;;29.15;16.20;;;7.70;77.80;;;;;;4962112;29;20035;-83
2022/03/20 07:12:39;;;;;;;27.88;16.98;;;7.90;77.20;;;;;;4972446;28;20039;-86
2022/03/20 07:15:15;;;;;;;25.55;15.23;;;8.10;76.90;;;;;;4963391;28;20118;-87
2022/03/20 07:17:40;;;;;;;25.92;15.65;;;8.40;76.60;;;;;;4960893;29;20023;-85
2022/03/20 07:20:09;;;;;;;30.35;16.45;;;8.60;75.60;;;;;;4948548;29;20041;-86
2022/03/20 07:22:38;;;;;;;27.98;16.23;;;8.70;75.40;;;;;;4947967;29;20027;-84
2022/03/20 07:30:37;;;;;;;27.05;14.88;;;9.60;73.10;;;;;;4969020;28;20058;-85
2022/03/20 07:33:03;;;;;;;26.23;15.55;;;9.80;71.70;;;;;;4961416;28;20034;-86
2022/03/20 07:35:28;;;;;;;27.95;15.93;;;9.80;70.70;;;;;;4960812;29;20015;-87
2022/03/20 07:38:31;;;;;;;27.95;15.63;;;9.70;70.50;;;;;;4954982;28;20038;-85
2022/03/20 07:40:57;;;;;;;28.17;16.52;;;10.00;70.60;;;;;;4940307;28;20103;-86
2022/03/20 07:43:26;;;;;;;28.58;16.45;;;10.60;69.50;;;;;;4963549;28;20070;-86
2022/03/20 07:46:02;;;;;;;27.60;15.80;;;11.20;68.50;;;;;;4961579;28;20011;-86
2022/03/20 07:48:27;;;;;;;25.17;15.07;;;11.70;67.50;;;;;;4941197;29;20030;-86
2022/03/20 07:50:53;;;;;;;25.63;15.95;;;12.00;67.00;;;;;;4961499;29;20047;-86
2022/03/20 07:53:19;;;;;;;27.90;16.15;;;12.20;66.90;;;;;;4946749;28;20035;-86
2022/03/20 07:55:48;;;;;;;26.63;15.25;;;12.30;67.20;;;;;;4959397;28;20031;-85
2022/03/20 07:58:19;;;;;;;23.23;15.38;;;12.40;66.80;;;;;;4948699;28;20039;-86
2022/03/20 08:01:05;;;;;;;26.43;16.67;;;12.40;66.40;;;;;;4957577;28;20051;-86
2022/03/20 08:03:41;;;;;;;24.48;15.30;;;12.60;65.80;;;;;;4964236;28;20035;-86
2022/03/20 08:06:08;;;;;;;25.55;16.13;;;13.10;64.20;;;;;;4958417;28;20028;-85
2022/03/20 08:09:27;;;;;;;;;;;;;;;;;;;;;
2022/03/20 08:11:42;;;;;;;26.70;16.95;;;14.20;60.70;;;;;;4930028;29;20332;-85
2022/03/20 08:14:09;;;;;;;24.67;15.90;;;14.80;58.80;;;;;;4952986;29;20042;-86
2022/03/20 08:16:38;;;;;;;23.83;15.20;;;15.20;57.30;;;;;;4946848;29;20106;-87
2022/03/20 08:19:05;;;;;;;23.75;16.35;;;15.80;56.60;;;;;;4952966;28;20078;-85
2022/03/20 08:21:33;;;;;;;26.40;15.90;;;16.20;55.40;;;;;;4952730;28;20171;-85
2022/03/20 08:24:01;;;;;;;27.67;16.17;;;16.60;54.30;;;;;;4954150;28;20041;-86
2022/03/20 08:26:26;;;;;;;25.67;15.95;;;16.80;53.50;;;;;;4952589;28;20027;-85
2022/03/20 08:28:52;;;;;;;24.92;15.70;;;17.00;53.00;;;;;;4953439;28;20513;-87
2022/03/20 08:31:17;;;;;;;25.85;16.70;;;17.10;51.90;;;;;;4948769;29;20501;-88
2022/03/20 08:33:43;;;;;;;25.67;15.43;;;17.10;51.80;;;;;;4953834;28;20537;-88
2022/03/20 08:36:09;;;;;;;24.15;16.30;;;17.10;51.40;;;;;;4946860;28;20058;-87
2022/03/20 08:38:35;;;;;;;26.08;16.23;;;17.20;51.60;;;;;;4956106;29;20039;-87
2022/03/20 08:41:01;;;;;;;23.80;14.70;;;17.20;51.90;;;;;;4962616;28;20019;-86
2022/03/20 08:43:27;;;;;;;25.23;16.08;;;17.30;51.60;;;;;;4955811;28;20031;-87
2022/03/20 08:45:53;;;;;;;24.85;15.70;;;17.20;51.60;;;;;;4957097;28;20062;-86
2022/03/20 08:48:18;;;;;;;23.83;15.57;;;17.20;51.90;;;;;;4964546;28;20019;-87
2022/03/20 08:50:48;;;;;;;24.27;15.95;;;17.20;52.00;;;;;;4953999;28;20027;-85
2022/03/20 08:53:16;;;;;;;25.67;16.27;;;17.30;52.10;;;;;;4955504;28;20078;-87
2022/03/20 08:55:42;;;;;;;22.23;15.38;;;17.40;52.30;;;;;;4957370;28;20474;-87
2022/03/20 08:58:08;;;;;;;22.88;15.52;;;17.60;52.20;;;;;;4953796;28;20030;-86
2022/03/20 09:00:33;;;;;;;22.80;15.20;;;17.60;51.80;;;;;;4963461;29;20553;-87
2022/03/20 09:03:00;;;;;;;25.63;16.02;;;17.80;51.70;;;;;;4953812;28;20057;-87
2022/03/20 09:05:25;;;;;;;26.75;15.98;;;17.80;51.70;;;;;;4946610;29;20450;-87
2022/03/20 09:07:57;;;;;;;24.20;16.05;;;17.70;51.70;;;;;;4950541;29;20034;-86
2022/03/20 09:10:23;;;;;;;23.58;15.02;;;17.70;51.70;;;;;;4962814;28;20458;-85
2022/03/20 09:12:49;;;;;;;24.60;15.95;;;17.60;51.30;;;;;;4942651;29;20039;-88
2022/03/20 09:15:16;;;;;;;23.23;15.35;;;17.40;51.40;;;;;;4951198;29;20493;-87
2022/03/20 09:20:31;;;;;;;28.00;15.77;;;17.10;51.00;;;;;;4959247;28;20070;-87
2022/03/20 09:22:57;;;;;;;24.70;14.82;;;16.90;51.50;;;;;;4951463;28;20131;-87
2022/03/20 09:25:23;;;;;;;25.80;15.90;;;16.90;51.80;;;;;;4944607;29;20047;-87
2022/03/20 09:27:51;;;;;;;23.02;14.88;;;16.80;51.90;;;;;;4947299;28;20027;-87
2022/03/20 09:30:17;;;;;;;25.83;16.10;;;16.90;52.10;;;;;;4949265;29;20061;-87
2022/03/20 09:32:49;;;;;;;22.45;14.85;;;16.90;52.10;;;;;;4942921;29;20115;-87
2022/03/20 09:35:16;;;;;;;24.70;15.30;;;16.90;51.50;;;;;;4945775;29;20032;-87
2022/03/20 09:37:42;;;;;;;21.40;13.75;;;17.00;52.00;;;;;;4957285;28;20491;-86
2022/03/20 09:40:12;;;;;;;25.33;15.50;;;17.00;51.90;;;;;;4951262;29;20054;-87
2022/03/20 09:43:07;;;;;;;22.35;14.52;;;16.90;51.80;;;;;;4941079;29;20023;-87
2022/03/20 09:45:37;;;;;;;26.00;15.15;;;16.80;51.90;;;;;;4933965;29;20035;-87
2022/03/20 09:48:08;;;;;;;24.02;16.10;;;16.90;52.10;;;;;;4944228;29;20035;-86
2022/03/20 09:50:34;;;;;;;25.23;15.23;;;17.00;51.80;;;;;;4940028;29;20024;-86
2022/03/20 09:52:59;;;;;;;25.23;15.73;;;16.90;51.70;;;;;;4940547;29;20027;-86
2022/03/20 09:55:25;;;;;;;26.17;15.52;;;16.90;51.90;;;;;;4957738;28;20066;-86
2022/03/20 09:58:00;;;;;;;24.10;15.65;;;17.00;52.20;;;;;;4961069;28;20231;-86
2022/03/20 10:00:26;;;;;;;22.92;15.43;;;17.10;51.90;;;;;;4954726;29;20019;-87
2022/03/20 10:02:52;;;;;;;24.77;15.68;;;17.10;52.00;;;;;;4945130;29;20027;-88
2022/03/20 10:05:20;;;;;;;24.75;15.30;;;17.20;52.00;;;;;;4945601;29;20031;-88
2022/03/20 10:07:45;;;;;;;26.00;15.88;;;17.40;51.90;;;;;;4946843;29;20028;-86
2022/03/20 10:10:17;;;;;;;22.08;15.32;;;17.40;51.70;;;;;;4946448;29;20035;-88
2022/03/20 10:12:56;;;;;;;21.30;14.93;;;17.50;51.40;;;;;;4964649;28;20027;-87
2022/03/20 10:15:38;;;;;;;27.85;15.18;;;17.50;50.90;;;;;;4946898;29;20043;-87
2022/03/20 10:18:08;;;;;;;22.93;14.73;;;17.50;51.00;;;;;;4945714;29;20186;-86
2022/03/20 10:20:44;;;;;;;22.52;15.02;;;17.60;51.50;;;;;;4944917;29;20020;-87
2022/03/20 10:23:36;;;;;;;24.95;16.73;;;17.60;50.90;;;;;;4944844;29;20105;-87
2022/03/20 10:26:06;;;;;;;24.55;15.60;;;17.60;49.10;;;;;;4943031;29;20034;-87
2022/03/20 10:28:44;;;;;;;24.15;14.77;;;17.30;49.20;;;;;;4942593;29;20474;-87
2022/03/20 10:31:20;;;;;;;25.60;15.25;;;17.30;49.90;;;;;;4954903;29;20035;-87
2022/03/20 10:34:00;;;;;;;24.42;14.85;;;17.40;50.50;;;;;;4945372;29;20520;-87
2022/03/20 10:36:26;;;;;;;27.13;15.10;;;17.50;50.50;;;;;;4931682;29;20028;-86
2022/03/20 10:38:51;;;;;;;24.48;14.27;;;17.50;50.50;;;;;;4941305;29;20023;-87
2022/03/20 10:41:25;;;;;;;24.15;15.32;;;17.60;50.70;;;;;;4954626;28;20497;-86
2022/03/20 10:43:52;;;;;;;21.85;14.82;;;17.70;50.80;;;;;;4959926;29;20027;-88
2022/03/20 10:46:29;;;;;;;24.40;15.27;;;17.90;50.70;;;;;;4961653;28;20073;-88
2022/03/20 10:48:57;;;;;;;23.05;14.93;;;18.00;50.50;;;;;;4943742;29;20054;-87
2022/03/20 10:51:39;;;;;;;24.63;15.70;;;18.20;50.40;;;;;;4960116;28;20083;-88
2022/03/20 10:54:06;;;;;;;22.23;15.17;;;18.40;50.20;;;;;;4960839;28;20034;-87
2022/03/20 10:56:32;;;;;;;26.60;16.70;;;18.60;50.50;;;;;;4943677;29;20482;-88
2022/03/20 10:58:58;;;;;;;23.80;15.18;;;18.60;49.40;;;;;;4961016;29;20114;-87
2022/03/20 11:01:38;;;;;;;23.02;14.05;;;18.50;49.30;;;;;;4944090;29;20023;-88
2022/03/20 11:04:11;;;;;;;25.55;15.05;;;18.50;49.10;;;;;;4946057;29;20030;-87
2022/03/20 11:06:39;;;;;;;25.75;14.45;;;18.50;49.20;;;;;;4943147;29;20033;-88
2022/03/20 11:09:05;;;;;;;22.40;14.38;;;18.60;49.30;;;;;;4959664;29;20082;-88
2022/03/20 11:12:03;;;;;;;22.15;14.65;;;18.60;49.30;;;;;;4944700;29;20031;-88
2022/03/20 11:14:29;;;;;;;22.63;16.02;;;18.60;48.70;;;;;;4945113;29;20039;-88
2022/03/20 11:17:04;;;;;;;24.38;14.73;;;18.50;47.80;;;;;;4959282;29;20098;-88
2022/03/20 11:19:31;;;;;;;24.67;14.70;;;18.30;48.50;;;;;;4945799;29;20029;-87
2022/03/20 11:22:05;;;;;;;25.73;15.10;;;18.40;48.90;;;;;;4960506;29;20082;-87
2022/03/20 11:24:32;;;;;;;18.65;13.77;;;18.40;48.80;;;;;;4960884;29;20033;-87
2022/03/20 11:27:02;;;;;;;24.42;15.02;;;18.40;49.00;;;;;;4943415;29;20549;-87
2022/03/20 11:29:31;;;;;;;21.52;14.07;;;18.60;49.20;;;;;;4943370;29;20122;-86
2022/03/20 11:31:59;;;;;;;22.67;14.35;;;18.70;49.10;;;;;;4942980;28;20485;-87
2022/03/20 11:34:28;;;;;;;18.83;13.52;;;18.90;49.10;;;;;;4947174;29;20071;-85
2022/03/20 11:37:08;;;;;;;23.05;14.70;;;19.10;48.90;;;;;;4942186;29;20054;-86
2022/03/20 11:39:39;;;;;;;24.65;15.65;;;19.10;48.70;;;;;;4943145;29;20065;-88
2022/03/20 11:42:27;;;;;;;24.92;15.32;;;19.20;49.30;;;;;;4942863;29;20030;-86
2022/03/20 11:45:16;;;;;;;28.40;15.23;;;19.40;48.20;;;;;;4942469;29;20442;-87
2022/03/20 11:47:43;;;;;;;21.17;13.75;;;19.30;47.60;;;;;;4959091;28;20042;-87
2022/03/20 11:50:27;;;;;;;24.45;14.48;;;19.40;48.20;;;;;;4956539;29;20054;-86
2022/03/20 11:52:55;;;;;;;22.95;13.93;;;19.40;47.20;;;;;;4945139;28;20031;-88
2022/03/20 11:55:29;;;;;;;20.00;13.45;;;19.30;46.90;;;;;;4979217;28;20100;-87
2022/03/20 11:57:58;;;;;;;23.05;14.50;;;19.30;47.30;;;;;;4950515;28;20115;-87
2022/03/20 12:00:29;;;;;;;20.95;14.18;;;19.40;48.30;;;;;;4959434;29;20502;-86
2022/03/20 12:03:13;;;;;;;19.95;13.27;;;19.40;47.40;;;;;;4939676;29;20047;-88
2022/03/20 12:05:42;;;;;;;23.40;14.43;;;19.40;47.50;;;;;;4958933;29;20075;-89
2022/03/20 12:08:29;;;;;;;25.67;14.20;;;19.50;47.50;;;;;;4959840;29;20023;-88
2022/03/20 12:11:24;;;;;;;22.10;13.75;;;19.60;47.60;;;;;;4970816;28;20026;-88
2022/03/20 12:14:09;;;;;;;21.50;14.05;;;19.60;47.20;;;;;;4963538;28;20023;-86
2022/03/20 12:16:46;;;;;;;24.35;15.00;;;19.70;47.30;;;;;;4963139;28;20035;-90
2022/03/20 12:19:17;;;;;;;21.77;13.93;;;19.80;46.80;;;;;;4954859;29;20019;-87
2022/03/20 12:22:15;;;;;;;22.75;14.63;;;19.80;46.50;;;;;;4946301;29;20023;-87
2022/03/20 12:24:49;;;;;;;19.95;13.48;;;19.80;46.60;;;;;;4946420;29;20049;-88
2022/03/20 12:27:20;;;;;;;22.33;13.18;;;19.80;47.00;;;;;;4961704;28;20119;-88
2022/03/20 12:29:49;;;;;;;27.93;14.67;;;19.90;46.70;;;;;;4961459;28;20027;-88
2022/03/20 12:32:16;;;;;;;22.00;14.40;;;20.00;47.20;;;;;;4945121;29;20027;-88
2022/03/20 12:34:44;;;;;;;22.65;13.45;;;20.10;47.60;;;;;;4945222;29;20019;-88
2022/03/20 12:37:32;;;;;;;20.60;13.60;;;20.20;47.70;;;;;;4944754;29;20170;-88
2022/03/20 12:40:18;;;;;;;20.92;13.68;;;20.40;47.40;;;;;;4960925;29;20030;-87
2022/03/20 12:43:08;;;;;;;24.83;14.88;;;20.50;47.00;;;;;;4962536;28;20027;-87
2022/03/20 12:45:51;;;;;;;25.65;14.10;;;20.50;46.60;;;;;;4962884;28;20023;-87
2022/03/20 12:48:19;;;;;;;22.58;13.65;;;20.40;46.80;;;;;;4945076;29;20027;-87
2022/03/20 12:50:52;;;;;;;20.70;13.05;;;20.40;47.20;;;;;;4945703;29;20062;-88
2022/03/20 12:53:21;;;;;;;20.77;13.55;;;20.50;47.00;;;;;;4946055;29;20019;-87
2022/03/20 12:55:58;;;;;;;25.33;15.15;;;20.60;46.70;;;;;;4960163;28;20042;-87
2022/03/20 12:58:26;;;;;;;22.20;13.80;;;20.70;46.10;;;;;;4953578;29;20030;-86
2022/03/20 13:00:55;;;;;;;19.55;13.60;;;20.70;46.20;;;;;;4943221;28;20031;-88
2022/03/20 13:03:22;;;;;;;21.38;14.90;;;20.60;46.00;;;;;;4942906;29;20023;-88
2022/03/20 13:05:51;;;;;;;22.83;13.70;;;20.50;46.00;;;;;;4942341;29;20516;-87
2022/03/20 13:08:22;;;;;;;24.00;14.07;;;20.40;46.00;;;;;;4942901;29;20055;-89
2022/03/20 13:10:49;;;;;;;25.35;14.15;;;20.40;46.20;;;;;;4961551;28;20027;-86
2022/03/20 13:13:19;;;;;;;21.92;14.07;;;20.50;46.30;;;;;;4942938;29;20031;-88
2022/03/20 13:15:46;;;;;;;23.27;14.50;;;20.40;46.00;;;;;;4941498;29;20545;-86
2022/03/20 13:18:12;;;;;;;22.63;13.50;;;20.40;46.10;;;;;;4943637;29;20031;-88